createdAt,value
2018-11-21T00:00:31.256Z,75.95
2018-11-21T00:01:11.801Z,75.6
2018-11-21T00:01:52.352Z,75.47
2018-11-21T00:02:32.903Z,75.66
2018-11-21T00:03:13.457Z,75.76
2018-11-21T00:03:54.008Z,76.17
2018-11-21T00:04:34.579Z,75.7
2018-11-21T00:05:15.158Z,75.7
2018-11-21T00:05:55.720Z,75.89
2018-11-21T00:06:36.336Z,75.85
2018-11-21T00:07:16.980Z,75.89
2018-11-21T00:07:57.533Z,75.89
2018-11-21T00:08:38.161Z,75.89
2018-11-21T00:09:18.705Z,75.79
2018-11-21T00:09:59.271Z,75.66
2018-11-21T00:10:39.914Z,75.57
2018-11-21T00:11:20.482Z,75.38
2018-11-21T00:12:01.053Z,75.47
2018-11-21T00:12:41.605Z,75.32
2018-11-21T00:13:22.195Z,75.28
2018-11-21T00:14:02.773Z,75.19
2018-11-21T00:14:43.324Z,75.47
2018-11-21T00:15:23.901Z,75.38
2018-11-21T00:16:04.468Z,75.19
2018-11-21T00:16:45.085Z,75.66
2018-11-21T00:17:25.569Z,75.38
2018-11-21T00:18:06.150Z,75.47
2018-11-21T00:18:46.731Z,75.47
2018-11-21T00:19:27.281Z,75.76
2018-11-21T00:20:07.835Z,75.66
2018-11-21T00:20:48.409Z,75.57
2018-11-21T00:21:29.020Z,75.76
2018-11-21T00:22:09.561Z,75.95
2018-11-21T00:22:50.105Z,75.85
2018-11-21T00:23:30.665Z,75.66
2018-11-21T00:24:11.233Z,75.47
2018-11-21T00:24:51.785Z,75.28
2018-11-21T00:25:32.352Z,75.13
2018-11-21T00:26:12.896Z,75.38
2018-11-21T00:26:53.563Z,75.57
2018-11-21T00:27:34.134Z,75.6
2018-11-21T00:28:14.699Z,74.75
2018-11-21T00:28:55.336Z,74.81
2018-11-21T00:29:35.947Z,74.81
2018-11-21T00:30:16.524Z,74.81
2018-11-21T00:30:57.098Z,74.81
2018-11-21T00:31:37.677Z,74.9
2018-11-21T00:32:18.273Z,74.81
2018-11-21T00:32:58.801Z,74.71
2018-11-21T00:33:39.371Z,74.81
2018-11-21T00:34:19.928Z,74.81
2018-11-21T00:35:00.496Z,75
2018-11-21T00:35:41.063Z,74.81
2018-11-21T00:36:21.695Z,74.81
2018-11-21T00:37:02.267Z,74.43
2018-11-21T00:37:42.825Z,74.81
2018-11-21T00:38:23.412Z,74.71
2018-11-21T00:39:03.968Z,74.9
2018-11-21T00:39:44.585Z,74.15
2018-11-21T00:40:25.137Z,74.33
2018-11-21T00:41:05.727Z,74.33
2018-11-21T00:41:46.274Z,74.43
2018-11-21T00:42:26.832Z,74.24
2018-11-21T00:43:07.408Z,74.52
2018-11-21T00:43:48.004Z,74.52
2018-11-21T00:44:28.551Z,73.86
2018-11-21T00:45:09.115Z,73.96
2018-11-21T00:45:49.689Z,74.33
2018-11-21T00:46:30.268Z,74.24
2018-11-21T00:47:10.831Z,74.05
2018-11-21T00:47:51.392Z,73.86
2018-11-21T00:48:31.964Z,74.33
2018-11-21T00:49:12.532Z,74.33
2018-11-21T00:49:53.091Z,73.77
2018-11-21T00:50:34.054Z,74.52
2018-11-21T00:51:14.670Z,73.96
2018-11-21T00:51:55.249Z,74.05
2018-11-21T00:52:35.815Z,74.15
2018-11-21T00:53:16.374Z,74.15
2018-11-21T00:53:56.969Z,74.15
2018-11-21T00:54:37.544Z,74.05
2018-11-21T00:55:18.288Z,73.96
2018-11-21T00:55:58.831Z,74.05
2018-11-21T00:56:40.420Z,74.43
2018-11-21T00:57:21.000Z,73.86
2018-11-21T00:58:01.545Z,74.33
2018-11-21T00:58:42.092Z,74.33
2018-11-21T00:59:22.633Z,74.15
2018-11-21T01:00:03.200Z,74.43
2018-11-21T01:00:43.753Z,74.52
2018-11-21T01:01:24.312Z,74.24
2018-11-21T01:02:04.860Z,74.43
2018-11-21T01:02:45.443Z,74.24
2018-11-21T01:03:26.001Z,74.33
2018-11-21T01:04:06.562Z,74.43
2018-11-21T01:04:47.148Z,74.33
2018-11-21T01:05:27.704Z,74.24
2018-11-21T01:06:08.262Z,74.33
2018-11-21T01:06:48.833Z,74.15
2018-11-21T01:07:29.395Z,74.15
2018-11-21T01:08:09.950Z,74.33
2018-11-21T01:08:50.530Z,74.05
2018-11-21T01:09:31.098Z,74.05
2018-11-21T01:10:11.705Z,74.05
2018-11-21T01:10:52.274Z,74.15
2018-11-21T01:11:32.843Z,74.15
2018-11-21T01:12:14.376Z,74.05
2018-11-21T01:12:54.936Z,74.05
2018-11-21T01:13:35.518Z,73.96
2018-11-21T01:14:16.091Z,74.15
2018-11-21T01:14:56.631Z,73.96
2018-11-21T01:15:37.211Z,74.15
2018-11-21T01:16:17.772Z,74.24
2018-11-21T01:16:58.319Z,73.77
2018-11-21T01:17:38.910Z,73.86
2018-11-21T01:18:19.464Z,74.05
2018-11-21T01:19:00.021Z,73.77
2018-11-21T01:19:40.587Z,73.49
2018-11-21T01:20:21.169Z,73.3
2018-11-21T01:21:01.720Z,73.86
2018-11-21T01:21:42.324Z,73.86
2018-11-21T01:22:22.871Z,73.86
2018-11-21T01:23:03.424Z,74.15
2018-11-21T01:23:43.993Z,73.43
2018-11-21T01:24:24.571Z,73.71
2018-11-21T01:25:05.134Z,73.3
2018-11-21T01:25:45.700Z,73.58
2018-11-21T01:26:26.252Z,73.77
2018-11-21T01:27:06.799Z,73.86
2018-11-21T01:27:47.343Z,73.58
2018-11-21T01:28:27.950Z,73.77
2018-11-21T01:29:08.540Z,73.86
2018-11-21T01:29:49.116Z,73.68
2018-11-21T01:30:29.651Z,73.77
2018-11-21T01:31:10.220Z,73.39
2018-11-21T01:31:50.781Z,73.3
2018-11-21T01:32:31.340Z,73.11
2018-11-21T01:33:11.988Z,73.39
2018-11-21T01:33:52.563Z,73.11
2018-11-21T01:34:33.159Z,73.39
2018-11-21T01:35:13.720Z,73.3
2018-11-21T01:35:54.293Z,73.11
2018-11-21T01:36:34.862Z,73.2
2018-11-21T01:37:15.436Z,73.39
2018-11-21T01:37:56.010Z,73.3
2018-11-21T01:38:36.703Z,73.58
2018-11-21T01:39:17.270Z,73.3
2018-11-21T01:39:57.855Z,73.39
2018-11-21T01:40:38.421Z,73.49
2018-11-21T01:41:18.983Z,73.3
2018-11-21T01:41:59.575Z,73.2
2018-11-21T01:42:40.112Z,73.2
2018-11-21T01:43:20.682Z,73.39
2018-11-21T01:44:01.250Z,72.82
2018-11-21T01:44:41.905Z,72.92
2018-11-21T01:45:22.456Z,73.11
2018-11-21T01:46:03.022Z,73.58
2018-11-21T01:46:43.628Z,73.49
2018-11-21T01:47:24.197Z,73.77
2018-11-21T01:48:04.775Z,73.39
2018-11-21T01:48:45.325Z,73.77
2018-11-21T01:49:25.917Z,73.49
2018-11-21T01:50:06.445Z,73.11
2018-11-21T01:50:46.997Z,72.73
2018-11-21T01:51:27.597Z,73.3
2018-11-21T01:52:08.109Z,73.68
2018-11-21T01:52:48.677Z,73.2
2018-11-21T01:53:29.253Z,72.92
2018-11-21T01:54:09.817Z,72.92
2018-11-21T01:54:50.397Z,72.82
2018-11-21T01:55:30.954Z,73.2
2018-11-21T01:56:11.528Z,73.11
2018-11-21T01:56:52.077Z,73.01
2018-11-21T01:57:32.624Z,72.92
2018-11-21T01:58:13.174Z,72.73
2018-11-21T01:58:53.736Z,72.92
2018-11-21T01:59:34.288Z,72.82
2018-11-21T02:00:14.863Z,72.82
2018-11-21T02:00:55.413Z,72.44
2018-11-21T02:01:36.049Z,72.25
2018-11-21T02:02:16.612Z,72.53
2018-11-21T02:02:57.173Z,72.44
2018-11-21T02:03:37.707Z,72.53
2018-11-21T02:04:18.251Z,72.92
2018-11-21T02:04:58.838Z,72.34
2018-11-21T02:05:39.433Z,72.92
2018-11-21T02:06:19.996Z,72.73
2018-11-21T02:07:00.560Z,72.53
2018-11-21T02:07:41.111Z,72.63
2018-11-21T02:08:21.668Z,72.53
2018-11-21T02:09:02.258Z,72.63
2018-11-21T02:09:42.814Z,72.63
2018-11-21T02:10:23.377Z,73.2
2018-11-21T02:11:03.926Z,72.92
2018-11-21T02:11:44.499Z,72.63
2018-11-21T02:12:25.063Z,72.92
2018-11-21T02:13:05.620Z,72.92
2018-11-21T02:13:46.169Z,72.73
2018-11-21T02:14:26.736Z,72.34
2018-11-21T02:15:07.303Z,72.53
2018-11-21T02:15:47.945Z,72.44
2018-11-21T02:16:28.479Z,72.44
2018-11-21T02:17:09.024Z,72.73
2018-11-21T02:17:49.579Z,72.73
2018-11-21T02:18:30.174Z,73.01
2018-11-21T02:19:10.720Z,73.11
2018-11-21T02:19:51.321Z,72.92
2018-11-21T02:20:31.910Z,73.11
2018-11-21T02:21:12.456Z,72.73
2018-11-21T02:21:53.044Z,72.63
2018-11-21T02:22:33.630Z,72.34
2018-11-21T02:23:14.196Z,72.53
2018-11-21T02:23:54.776Z,72.53
2018-11-21T02:24:35.363Z,72.44
2018-11-21T02:25:15.921Z,72.53
2018-11-21T02:25:56.473Z,72.44
2018-11-21T02:26:37.081Z,72.44
2018-11-21T02:27:17.646Z,72.63
2018-11-21T02:27:58.250Z,71.88
2018-11-21T02:28:38.820Z,71.88
2018-11-21T02:29:19.413Z,72.06
2018-11-21T02:29:59.970Z,72.16
2018-11-21T02:30:40.533Z,72.06
2018-11-21T02:31:21.075Z,71.97
2018-11-21T02:32:01.649Z,72.06
2018-11-21T02:32:42.203Z,72.06
2018-11-21T02:33:22.743Z,71.97
2018-11-21T02:34:03.316Z,72.25
2018-11-21T02:34:43.872Z,72.06
2018-11-21T02:35:24.457Z,71.78
2018-11-21T02:36:05.059Z,71.97
2018-11-21T02:36:45.618Z,71.88
2018-11-21T02:37:26.169Z,71.97
2018-11-21T02:38:06.716Z,72.16
2018-11-21T02:38:47.314Z,71.78
2018-11-21T02:39:27.911Z,72.06
2018-11-21T02:40:08.465Z,72.25
2018-11-21T02:40:49.003Z,72.06
2018-11-21T02:41:29.553Z,72.06
2018-11-21T02:42:10.123Z,72.16
2018-11-21T02:42:50.666Z,72.25
2018-11-21T02:43:31.241Z,72.25
2018-11-21T02:44:11.831Z,72.16
2018-11-21T02:44:52.429Z,72.06
2018-11-21T02:45:32.993Z,71.88
2018-11-21T02:46:13.572Z,72.06
2018-11-21T02:46:54.123Z,72.25
2018-11-21T02:47:34.718Z,71.97
2018-11-21T02:48:15.286Z,72.16
2018-11-21T02:48:55.801Z,72.06
2018-11-21T02:49:36.385Z,71.97
2018-11-21T02:50:16.970Z,72.06
2018-11-21T02:50:57.525Z,71.97
2018-11-21T02:51:38.079Z,72.06
2018-11-21T02:52:18.655Z,71.97
2018-11-21T02:52:59.277Z,72.16
2018-11-21T02:53:39.841Z,72.06
2018-11-21T02:54:20.399Z,72.06
2018-11-21T02:55:00.945Z,71.88
2018-11-21T02:55:41.491Z,71.97
2018-11-21T02:56:22.047Z,71.88
2018-11-21T02:57:02.595Z,72.25
2018-11-21T02:57:43.166Z,72.44
2018-11-21T02:58:23.717Z,72.44
2018-11-21T02:59:04.283Z,72.16
2018-11-21T02:59:44.870Z,72.16
2018-11-21T03:00:25.446Z,72.06
2018-11-21T03:01:06.019Z,72.16
2018-11-21T03:01:46.587Z,72.16
2018-11-21T03:02:27.177Z,71.88
2018-11-21T03:03:07.750Z,72.16
2018-11-21T03:03:48.333Z,71.97
2018-11-21T03:04:28.888Z,72.06
2018-11-21T03:05:09.429Z,72.06
2018-11-21T03:05:50.022Z,72.06
2018-11-21T03:06:30.547Z,71.97
2018-11-21T03:07:11.084Z,72.44
2018-11-21T03:07:51.631Z,72.25
2018-11-21T03:08:32.239Z,72.34
2018-11-21T03:09:12.808Z,72.63
2018-11-21T03:09:53.373Z,72.16
2018-11-21T03:10:33.915Z,71.97
2018-11-21T03:11:14.467Z,72.06
2018-11-21T03:11:55.026Z,72.16
2018-11-21T03:12:35.590Z,71.88
2018-11-21T03:13:16.161Z,71.88
2018-11-21T03:13:56.711Z,71.88
2018-11-21T03:14:37.289Z,71.97
2018-11-21T03:15:17.864Z,71.97
2018-11-21T03:15:58.439Z,71.97
2018-11-21T03:16:39.025Z,72.06
2018-11-21T03:17:19.566Z,72.16
2018-11-21T03:18:00.136Z,72.06
2018-11-21T03:18:40.727Z,72.06
2018-11-21T03:19:21.309Z,71.78
2018-11-21T03:20:01.886Z,72.06
2018-11-21T03:20:42.453Z,72.44
2018-11-21T03:21:23.015Z,72.44
2018-11-21T03:22:03.577Z,72.44
2018-11-21T03:22:44.131Z,72.34
2018-11-21T03:23:24.683Z,72.34
2018-11-21T03:24:05.235Z,72.34
2018-11-21T03:24:45.815Z,72.25
2018-11-21T03:25:26.363Z,72.44
2018-11-21T03:26:06.910Z,72.53
2018-11-21T03:26:47.463Z,72.16
2018-11-21T03:27:28.009Z,72.25
2018-11-21T03:28:08.585Z,72.53
2018-11-21T03:28:49.145Z,72.73
2018-11-21T03:29:29.703Z,72.92
2018-11-21T03:30:10.240Z,72.92
2018-11-21T03:30:50.815Z,72.92
2018-11-21T03:31:31.365Z,73.11
2018-11-21T03:32:11.926Z,73.01
2018-11-21T03:32:52.510Z,72.73
2018-11-21T03:33:33.066Z,72.92
2018-11-21T03:34:13.622Z,72.73
2018-11-21T03:34:54.267Z,72.63
2018-11-21T03:35:34.847Z,72.63
2018-11-21T03:36:15.417Z,72.63
2018-11-21T03:36:55.964Z,72.82
2018-11-21T03:37:36.527Z,73.11
2018-11-21T03:38:17.094Z,72.92
2018-11-21T03:38:57.660Z,72.92
2018-11-21T03:39:38.229Z,73.01
2018-11-21T03:40:18.820Z,73.2
2018-11-21T03:40:59.379Z,73.11
2018-11-21T03:41:39.948Z,72.92
2018-11-21T03:42:20.541Z,73.11
2018-11-21T03:43:01.110Z,73.2
2018-11-21T03:43:41.701Z,73.2
2018-11-21T03:44:22.250Z,73.2
2018-11-21T03:45:02.814Z,73.2
2018-11-21T03:45:43.363Z,72.92
2018-11-21T03:46:23.970Z,72.92
2018-11-21T03:47:04.502Z,72.82
2018-11-21T03:47:45.072Z,73.3
2018-11-21T03:48:25.655Z,73.01
2018-11-21T03:49:06.227Z,72.82
2018-11-21T03:49:46.808Z,73.3
2018-11-21T03:50:27.380Z,72.63
2018-11-21T03:51:07.934Z,72.92
2018-11-21T03:51:48.472Z,72.92
2018-11-21T03:52:29.042Z,72.92
2018-11-21T03:53:09.612Z,72.53
2018-11-21T03:53:50.191Z,72.63
2018-11-21T03:54:30.760Z,72.63
2018-11-21T03:55:11.303Z,72.73
2018-11-21T03:55:51.893Z,73.11
2018-11-21T03:56:32.472Z,72.92
2018-11-21T03:57:12.984Z,72.92
2018-11-21T03:57:53.542Z,72.92
2018-11-21T03:58:34.096Z,72.63
2018-11-21T03:59:14.656Z,72.63
2018-11-21T03:59:55.231Z,72.34
2018-11-21T04:00:35.809Z,72.63
2018-11-21T04:01:16.366Z,72.16
2018-11-21T04:01:56.923Z,72.06
2018-11-21T04:02:37.487Z,72.53
2018-11-21T04:03:18.049Z,72.92
2018-11-21T04:03:58.646Z,72.53
2018-11-21T04:04:39.224Z,72.34
2018-11-21T04:05:19.787Z,72.34
2018-11-21T04:06:00.349Z,72.53
2018-11-21T04:06:40.903Z,72.63
2018-11-21T04:07:21.445Z,72.63
2018-11-21T04:08:01.994Z,73.01
2018-11-21T04:08:42.811Z,72.92
2018-11-21T04:09:23.117Z,73.01
2018-11-21T04:10:03.728Z,72.53
2018-11-21T04:10:44.290Z,72.73
2018-11-21T04:11:24.841Z,72.63
2018-11-21T04:12:05.394Z,72.92
2018-11-21T04:12:45.947Z,72.63
2018-11-21T04:13:26.516Z,72.53
2018-11-21T04:14:07.064Z,71.78
2018-11-21T04:14:47.624Z,71.97
2018-11-21T04:15:28.187Z,72.16
2018-11-21T04:16:08.743Z,72.53
2018-11-21T04:16:49.324Z,72.06
2018-11-21T04:17:29.914Z,71.78
2018-11-21T04:18:10.451Z,72.25
2018-11-21T04:18:51.013Z,72.34
2018-11-21T04:19:31.561Z,72.53
2018-11-21T04:20:12.113Z,72.63
2018-11-21T04:20:52.685Z,72.73
2018-11-21T04:21:33.285Z,72.53
2018-11-21T04:22:13.865Z,72.92
2018-11-21T04:22:54.435Z,72.53
2018-11-21T04:23:34.993Z,72.73
2018-11-21T04:24:15.544Z,72.44
2018-11-21T04:24:56.115Z,72.63
2018-11-21T04:25:36.691Z,72.73
2018-11-21T04:26:17.239Z,72.82
2018-11-21T04:26:57.801Z,72.34
2018-11-21T04:27:38.374Z,72.53
2018-11-21T04:28:18.946Z,72.44
2018-11-21T04:28:59.509Z,72.63
2018-11-21T04:29:40.068Z,72.63
2018-11-21T04:30:20.635Z,72.63
2018-11-21T04:31:01.238Z,72.53
2018-11-21T04:31:41.784Z,72.82
2018-11-21T04:32:22.429Z,72.82
2018-11-21T04:33:02.954Z,72.63
2018-11-21T04:33:43.521Z,73.01
2018-11-21T04:34:24.058Z,72.92
2018-11-21T04:35:04.608Z,72.63
2018-11-21T04:35:45.145Z,73.2
2018-11-21T04:36:25.705Z,73.11
2018-11-21T04:37:06.269Z,73.11
2018-11-21T04:37:46.837Z,73.01
2018-11-21T04:38:27.379Z,73.01
2018-11-21T04:39:07.929Z,73.11
2018-11-21T04:39:48.470Z,73.39
2018-11-21T04:40:29.081Z,73.2
2018-11-21T04:41:09.630Z,73.2
2018-11-21T04:41:50.194Z,73.3
2018-11-21T04:42:30.747Z,73.49
2018-11-21T04:43:11.305Z,73.49
2018-11-21T04:43:51.859Z,73.49
2018-11-21T04:44:32.418Z,73.49
2018-11-21T04:45:12.969Z,73.39
2018-11-21T04:45:53.533Z,73.49
2018-11-21T04:46:34.110Z,73.2
2018-11-21T04:47:14.677Z,73.58
2018-11-21T04:47:55.990Z,73.2
2018-11-21T04:48:35.825Z,73.49
2018-11-21T04:49:16.380Z,73.49
2018-11-21T04:49:56.941Z,73.58
2018-11-21T04:50:37.499Z,73.49
2018-11-21T04:51:18.199Z,73.49
2018-11-21T04:51:58.728Z,73.68
2018-11-21T04:52:39.259Z,73.96
2018-11-21T04:53:19.830Z,73.96
2018-11-21T04:54:00.386Z,73.86
2018-11-21T04:54:40.958Z,73.86
2018-11-21T04:55:21.518Z,73.49
2018-11-21T04:56:02.083Z,73.3
2018-11-21T04:56:42.660Z,73.39
2018-11-21T04:57:23.501Z,73.86
2018-11-21T04:58:04.168Z,74.24
2018-11-21T04:58:44.757Z,74.05
2018-11-21T04:59:25.590Z,74.15
2018-11-21T05:00:06.324Z,74.05
2018-11-21T05:00:46.886Z,73.86
2018-11-21T05:01:27.440Z,73.49
2018-11-21T05:02:07.992Z,73.39
2018-11-21T05:02:48.554Z,73.49
2018-11-21T05:03:29.105Z,73.58
2018-11-21T05:04:09.659Z,73.58
2018-11-21T05:04:50.199Z,73.58
2018-11-21T05:05:30.755Z,73.58
2018-11-21T05:06:11.313Z,73.58
2018-11-21T05:06:51.876Z,73.49
2018-11-21T05:07:32.435Z,73.39
2018-11-21T05:08:12.993Z,73.68
2018-11-21T05:08:53.576Z,73.86
2018-11-21T05:09:34.157Z,73.86
2018-11-21T05:10:14.714Z,74.24
2018-11-21T05:10:55.250Z,74.15
2018-11-21T05:11:35.795Z,74.33
2018-11-21T05:12:16.369Z,73.86
2018-11-21T05:12:56.946Z,74.24
2018-11-21T05:13:37.495Z,74.33
2018-11-21T05:14:18.063Z,73.96
2018-11-21T05:14:58.627Z,74.05
2018-11-21T05:15:39.196Z,73.86
2018-11-21T05:16:19.760Z,73.77
2018-11-21T05:17:00.342Z,74.33
2018-11-21T05:17:40.896Z,74.24
2018-11-21T05:18:21.432Z,74.05
2018-11-21T05:19:02.003Z,74.43
2018-11-21T05:19:42.550Z,74.43
2018-11-21T05:20:23.100Z,74.24
2018-11-21T05:21:03.681Z,74.33
2018-11-21T05:21:44.240Z,74.43
2018-11-21T05:22:24.808Z,74.05
2018-11-21T05:23:05.391Z,74.43
2018-11-21T05:23:45.949Z,74.43
2018-11-21T05:24:26.515Z,74.05
2018-11-21T05:25:07.082Z,74.33
2018-11-21T05:25:47.619Z,74.52
2018-11-21T05:26:28.174Z,74.33
2018-11-21T05:27:08.742Z,74.52
2018-11-21T05:27:49.322Z,74.33
2018-11-21T05:28:29.880Z,74.71
2018-11-21T05:29:10.464Z,74.9
2018-11-21T05:29:51.003Z,74.9
2018-11-21T05:30:31.559Z,74.71
2018-11-21T05:31:12.110Z,74.71
2018-11-21T05:31:52.672Z,74.9
2018-11-21T05:32:33.228Z,74.81
2018-11-21T05:33:13.778Z,74.81
2018-11-21T05:33:54.323Z,75.09
2018-11-21T05:34:34.872Z,75.28
2018-11-21T05:35:15.425Z,74.71
2018-11-21T05:35:56.039Z,74.81
2018-11-21T05:36:36.587Z,75
2018-11-21T05:37:17.186Z,74.52
2018-11-21T05:37:57.743Z,74.81
2018-11-21T05:38:38.308Z,75
2018-11-21T05:39:18.860Z,74.81
2018-11-21T05:39:59.418Z,74.81
2018-11-21T05:40:39.994Z,75.19
2018-11-21T05:41:20.542Z,74.81
2018-11-21T05:42:01.094Z,74.52
2018-11-21T05:42:41.662Z,74.62
2018-11-21T05:43:22.214Z,75.19
2018-11-21T05:44:02.779Z,75
2018-11-21T05:44:43.351Z,75
2018-11-21T05:45:23.923Z,75.09
2018-11-21T05:46:04.468Z,75.66
2018-11-21T05:46:45.020Z,75.09
2018-11-21T05:47:25.571Z,75.19
2018-11-21T05:48:06.145Z,74.52
2018-11-21T05:48:46.722Z,74.81
2018-11-21T05:49:27.322Z,75
2018-11-21T05:50:07.872Z,74.81
2018-11-21T05:50:48.581Z,75.66
2018-11-21T05:51:29.739Z,75.28
2018-11-21T05:52:10.785Z,75.47
2018-11-21T05:52:51.672Z,75.57
2018-11-21T05:53:32.886Z,75.38
2018-11-21T05:54:13.433Z,75.66
2018-11-21T05:54:54.023Z,75.19
2018-11-21T05:55:34.590Z,75
2018-11-21T05:56:15.163Z,74.52
2018-11-21T05:56:55.713Z,75
2018-11-21T05:57:36.289Z,75.57
2018-11-21T05:58:16.901Z,75.57
2018-11-21T05:58:57.457Z,75.57
2018-11-21T05:59:38.019Z,75.38
2018-11-21T06:00:18.769Z,75.19
2018-11-21T06:00:59.853Z,75.19
2018-11-21T06:01:40.408Z,75.38
2018-11-21T06:02:20.973Z,75.19
2018-11-21T06:03:01.543Z,75.38
2018-11-21T06:03:42.105Z,75.66
2018-11-21T06:04:22.699Z,75.28
2018-11-21T06:05:03.287Z,74.81
2018-11-21T06:05:44.313Z,75
2018-11-21T06:06:24.890Z,75.47
2018-11-21T06:07:05.426Z,75.47
2018-11-21T06:07:45.982Z,75.28
2018-11-21T06:08:26.582Z,75.57
2018-11-21T06:09:07.229Z,75.38
2018-11-21T06:09:47.787Z,75.57
2018-11-21T06:10:28.345Z,75.47
2018-11-21T06:11:08.908Z,75.38
2018-11-21T06:11:49.476Z,75.38
2018-11-21T06:12:30.035Z,75.28
2018-11-21T06:13:10.575Z,75.57
2018-11-21T06:13:51.169Z,75.38
2018-11-21T06:14:31.744Z,75.66
2018-11-21T06:15:12.315Z,75.85
2018-11-21T06:15:52.860Z,75.76
2018-11-21T06:16:33.420Z,75.66
2018-11-21T06:17:13.975Z,75.57
2018-11-21T06:17:54.560Z,75.38
2018-11-21T06:18:35.127Z,75.38
2018-11-21T06:19:15.685Z,75.47
2018-11-21T06:19:56.235Z,75.57
2018-11-21T06:20:36.778Z,75.76
2018-11-21T06:21:17.330Z,75.57
2018-11-21T06:21:57.885Z,75.76
2018-11-21T06:22:38.475Z,76.23
2018-11-21T06:23:19.037Z,76.32
2018-11-21T06:23:59.623Z,76.23
2018-11-21T06:24:40.196Z,75.47
2018-11-21T06:25:20.768Z,75.57
2018-11-21T06:26:01.333Z,75.57
2018-11-21T06:26:41.890Z,75.57
2018-11-21T06:27:22.450Z,75.95
2018-11-21T06:28:03.013Z,75.85
2018-11-21T06:28:43.564Z,75.57
2018-11-21T06:29:24.188Z,75.95
2018-11-21T06:30:04.698Z,76.23
2018-11-21T06:30:45.401Z,75.85
2018-11-21T06:31:25.810Z,75.85
2018-11-21T06:32:06.373Z,75.38
2018-11-21T06:32:46.915Z,75.85
2018-11-21T06:33:27.469Z,75.76
2018-11-21T06:34:08.053Z,75.76
2018-11-21T06:34:48.628Z,75.57
2018-11-21T06:35:29.162Z,75.85
2018-11-21T06:36:09.757Z,75.76
2018-11-21T06:36:50.317Z,75.76
2018-11-21T06:37:30.881Z,75.76
2018-11-21T06:38:11.452Z,75.76
2018-11-21T06:38:52.017Z,75.85
2018-11-21T06:39:32.667Z,75.85
2018-11-21T06:40:13.212Z,75.95
2018-11-21T06:40:53.765Z,75.57
2018-11-21T06:41:34.314Z,75.28
2018-11-21T06:42:14.900Z,75.38
2018-11-21T06:42:55.462Z,75.57
2018-11-21T06:43:36.026Z,75.57
2018-11-21T06:44:16.554Z,75.85
2018-11-21T06:44:57.154Z,75.85
2018-11-21T06:45:37.720Z,75.76
2018-11-21T06:46:18.317Z,75.47
2018-11-21T06:46:58.873Z,75.47
2018-11-21T06:47:39.431Z,77.75
2018-11-21T06:48:20.016Z,79.83
2018-11-21T06:49:00.588Z,82.2
2018-11-21T06:49:41.157Z,82.71
2018-11-21T06:50:21.818Z,83
2018-11-21T06:51:02.406Z,81.38
2018-11-21T06:51:42.984Z,77.59
2018-11-21T06:52:23.549Z,74.85
2018-11-21T06:53:04.113Z,74.47
2018-11-21T06:53:44.664Z,74.75
2018-11-21T06:54:25.235Z,74.56
2018-11-21T06:55:05.801Z,75.74
2018-11-21T06:55:46.341Z,75.64
2018-11-21T06:56:26.896Z,74.88
2018-11-21T06:57:07.509Z,74.13
2018-11-21T06:57:48.064Z,73.46
2018-11-21T06:58:28.617Z,73.75
2018-11-21T06:59:09.173Z,74.22
2018-11-21T06:59:49.722Z,73.65
2018-11-21T07:00:30.268Z,72.23
2018-11-21T07:01:10.887Z,71.95
2018-11-21T07:01:52.986Z,71.38
2018-11-21T07:02:33.553Z,71.09
2018-11-21T07:03:14.128Z,70.9
2018-11-21T07:03:54.740Z,70.72
2018-11-21T07:04:35.302Z,71.06
2018-11-21T07:05:15.871Z,71.15
2018-11-21T07:05:56.450Z,71.34
2018-11-21T07:06:37.029Z,72
2018-11-21T07:07:17.620Z,72
2018-11-21T07:07:58.204Z,72.29
2018-11-21T07:08:38.763Z,72.1
2018-11-21T07:09:19.308Z,72.38
2018-11-21T07:09:59.905Z,72.77
2018-11-21T07:10:40.456Z,72.77
2018-11-21T07:11:21.063Z,72.86
2018-11-21T07:12:01.614Z,72.96
2018-11-21T07:12:42.196Z,73.24
2018-11-21T07:13:22.781Z,72.86
2018-11-21T07:14:07.169Z,73.43
2018-11-21T07:14:43.896Z,73.43
2018-11-21T07:15:24.484Z,73.52
2018-11-21T07:16:05.060Z,73.43
2018-11-21T07:16:45.654Z,73.58
2018-11-21T07:17:26.212Z,73.52
2018-11-21T07:18:06.838Z,73.9
2018-11-21T07:18:47.416Z,73.39
2018-11-21T07:19:27.979Z,73.61
2018-11-21T07:20:08.615Z,73.86
2018-11-21T07:20:49.340Z,73.71
2018-11-21T07:21:29.893Z,73.58
2018-11-21T07:22:10.437Z,73.43
2018-11-21T07:22:50.994Z,73.49
2018-11-21T07:23:31.747Z,73.86
2018-11-21T07:24:12.411Z,74.15
2018-11-21T07:24:52.950Z,73.86
2018-11-21T07:25:33.605Z,74.15
2018-11-21T07:26:14.203Z,74.33
2018-11-21T07:26:54.833Z,74.71
2018-11-21T07:27:35.678Z,74.9
2018-11-21T07:28:17.006Z,74.81
2018-11-21T07:28:58.274Z,74.9
2018-11-21T07:29:39.400Z,74.81
2018-11-21T07:30:19.997Z,74.9
2018-11-21T07:31:00.554Z,74.9
2018-11-21T07:31:41.098Z,74.52
2018-11-21T07:32:21.663Z,75.19
2018-11-21T07:33:02.220Z,74.52
2018-11-21T07:33:46.484Z,74.81
2018-11-21T07:34:23.474Z,74.71
2018-11-21T07:35:04.044Z,74.43
2018-11-21T07:35:44.675Z,75.09
2018-11-21T07:36:25.238Z,74.71
2018-11-21T07:37:05.830Z,75
2018-11-21T07:37:46.450Z,74.81
2018-11-21T07:38:27.037Z,74.71
2018-11-21T07:39:07.604Z,74.81
2018-11-21T07:39:48.157Z,75.66
2018-11-21T07:40:28.703Z,75.66
2018-11-21T07:41:09.315Z,75.47
2018-11-21T07:41:49.868Z,75.28
2018-11-21T07:42:30.445Z,75.28
2018-11-21T07:43:11.030Z,75.19
2018-11-21T07:43:51.656Z,75.47
2018-11-21T07:44:32.245Z,75.28
2018-11-21T07:45:12.896Z,75.38
2018-11-21T07:45:53.502Z,75.57
2018-11-21T07:46:34.056Z,75.28
2018-11-21T07:47:14.623Z,75.28
2018-11-21T07:47:55.240Z,75.47
2018-11-21T07:48:35.811Z,75.66
2018-11-21T07:49:16.393Z,75.57
2018-11-21T07:49:57.167Z,75.47
2018-11-21T07:50:37.758Z,75.76
2018-11-21T07:51:18.411Z,75.76
2018-11-21T07:51:59.000Z,75.85
2018-11-21T07:52:39.576Z,75.85
2018-11-21T07:53:20.159Z,75.66
2018-11-21T07:54:00.720Z,75.66
2018-11-21T07:54:41.330Z,75.76
2018-11-21T07:55:22.588Z,75.85
2018-11-21T07:56:03.787Z,75.57
2018-11-21T07:56:44.390Z,76.04
2018-11-21T07:57:25.110Z,76.14
2018-11-21T07:58:05.682Z,76.51
2018-11-21T07:58:46.308Z,76.7
2018-11-21T07:59:26.878Z,76.61
2018-11-21T08:00:07.472Z,76.51
2018-11-21T08:00:48.645Z,76.7
2018-11-21T08:01:29.898Z,76.99
2018-11-21T08:02:10.949Z,77.08
2018-11-21T08:02:51.548Z,76.7
2018-11-21T08:03:32.124Z,76.89
2018-11-21T08:04:12.747Z,76.89
2018-11-21T08:04:53.308Z,76.99
2018-11-21T08:05:33.910Z,76.8
2018-11-21T08:06:14.460Z,76.8
2018-11-21T08:06:55.045Z,77.08
2018-11-21T08:07:35.593Z,76.89
2018-11-21T08:08:16.164Z,76.8
2018-11-21T08:08:57.325Z,76.7
2018-11-21T08:09:37.885Z,76.7
2018-11-21T08:10:18.451Z,76.7
2018-11-21T08:10:59.001Z,76.89
2018-11-21T08:11:39.569Z,76.99
2018-11-21T08:12:20.137Z,76.89
2018-11-21T08:13:00.727Z,77.18
2018-11-21T08:13:41.284Z,76.89
2018-11-21T08:14:21.883Z,76.99
2018-11-21T08:15:02.431Z,76.8
2018-11-21T08:15:42.987Z,76.99
2018-11-21T08:16:23.566Z,77.08
2018-11-21T08:17:04.201Z,76.99
2018-11-21T08:17:44.758Z,76.99
2018-11-21T08:18:25.317Z,77.18
2018-11-21T08:19:05.878Z,77.18
2018-11-21T08:19:46.479Z,76.99
2018-11-21T08:20:27.064Z,77.27
2018-11-21T08:21:07.592Z,76.99
2018-11-21T08:21:48.135Z,76.99
2018-11-21T08:22:28.734Z,76.89
2018-11-21T08:23:09.342Z,76.89
2018-11-21T08:23:55.488Z,77.08
2018-11-21T08:24:30.483Z,76.99
2018-11-21T08:25:11.048Z,76.89
2018-11-21T08:25:51.651Z,76.8
2018-11-21T08:26:32.199Z,76.89
2018-11-21T08:27:12.749Z,76.99
2018-11-21T08:27:53.295Z,76.99
2018-11-21T08:28:33.857Z,76.7
2018-11-21T08:29:14.406Z,76.99
2018-11-21T08:29:54.966Z,76.99
2018-11-21T08:30:35.513Z,76.7
2018-11-21T08:31:16.122Z,77.08
2018-11-21T08:31:56.700Z,77.08
2018-11-21T08:32:37.258Z,76.8
2018-11-21T08:33:17.836Z,76.61
2018-11-21T08:33:58.457Z,76.51
2018-11-21T08:34:38.965Z,76.7
2018-11-21T08:35:19.522Z,76.42
2018-11-21T08:36:00.111Z,77.27
2018-11-21T08:36:40.661Z,77.08
2018-11-21T08:37:21.204Z,77.08
2018-11-21T08:38:01.765Z,76.99
2018-11-21T08:38:42.381Z,76.7
2018-11-21T08:39:22.872Z,76.89
2018-11-21T08:40:03.485Z,76.89
2018-11-21T08:40:44.066Z,76.8
2018-11-21T08:41:24.619Z,76.89
2018-11-21T08:42:05.215Z,76.61
2018-11-21T08:42:45.799Z,76.89
2018-11-21T08:43:26.352Z,76.89
2018-11-21T08:44:06.914Z,76.99
2018-11-21T08:44:47.468Z,76.99